Spearfish, SD (57799)

5:41 PM MST on March 02, 2015 (GMT -0700)
TMWC | Change Station
CLOSE
Current Station
Personal Weather Station
Location: Spearfish, SD
Elevation: 3687 ft
Nearby Weather Stations
Active Advisory: Winter Weather Advisory

Elev 3687 ft 44.49 °N, 103.87 °W | Updated 14 seconds ago

Clear
Clear
38.5 °F
Feels Like 38 °F
N
0.0
Wind Variable Wind from SSW
Gusts 0.0 mph

Today
High -- | Low -- °F
--% Chance of Precip.
Yesterday
High -- | Low -- °F
Precip. -- in
6:31 AM 5:44 PM
Waxing Gibbous, 93% visible
Pressure 29.70 in
Visibility 10.0 miles
Clouds Clear
Windchill 38 °F
Dew Point 23 °F
Humidity 53%
Rainfall 0.00 in
Snow Depth Not available.
UV 0.0 out of 12
Pollen 1.20 out of 12
Air Quality Not available.
Flu Activity Not available.
METAR KSPF 030035Z AUTO 18004KT 10SM CLR 02/M04 A2970 RMK AO2

More Conditions Fewer Conditions

Pressure 29.70 in
Visibility 10.0 miles
Clouds Clear
Windchill 38 °F
Dew Point 23 °F
Humidity 53%
Rainfall 0.00 in
Snow Depth Not available.
UV 0.0 out of 12
Pollen 1.20 out of 12
Air Quality Not available.
Flu Activity Not available.
METAR KSPF 030035Z AUTO 18004KT 10SM CLR 02/M04 A2970 RMK AO2

More Conditions Fewer Conditions

10-Day Weather Forecast

Almanac

Astronomy

Mar. 02, 2015 Rise Set
Actual Time
Civil Twilight
Nautical Twilight
Astronomical Twilight
Moon
Length of Visible Light
Length of Day
Tomorrow will be .
, % of the Moon is Illuminated

Today's Extremes

State Highs State Lows

Community

WunderPhotos

Upload Photos

1,802,009 photos uploaded!

WunderBlogs® & News

Nearby

Air Quality

  Air Quality AQ Index Pollutant
Not available.

Snow Depth

Station Depth Elevation

Earthquake Activity

City Distance Mag. Time & Date
Minimum magnitude displayed is 2.5.

Coastal Water Temperatures

Place Temperature

Nearby Weather Stations

Winter Weather Advisory
Statement as of 1:29 PM MST on March 02, 2015

... Winter Weather Advisory remains in effect from 8 PM this
evening to 5 PM MST Tuesday...

A Winter Weather Advisory remains in effect from 8 PM this
evening to 5 PM MST Tuesday.

* Timing... this evening into Tuesday afternoon.

* Main hazard... 3 to 7 inches of snow with locally higher amounts
possible.

* Other conditions... areas of blowing snow with reduced
visibilities are likely over open areas due to gusty northerly
winds.

* Impacts... travel will be hazardous this evening into Tuesday
afternoon.

Precautionary/preparedness actions...

This Winter Weather Advisory means snow and blowing snow will
create hazardous conditions. Use caution when outdoors or
traveling.